Time;durP1;ratioP1;P1;durP2;ratioP2;P2;SDS_P1;SDS_P2;PMS_P1;PMS_P2;Temp;Humidity;BMP_temperature;BMP_pressure;BME280_temperature;BME280_humidity;BME280_pressure;Samples;Min_cycle;Max_cycle;Signal;HPM_P1;HPM_P2
2021/11/16 00:01:10;;;;;;;53.97;28.87;;;;;;;4.60;100.00;96628.50;5017352;28;20059;-74
2021/11/16 00:03:36;;;;;;;56.23;30.47;;;;;;;4.60;100.00;96625.91;4996004;28;20106;-74
2021/11/16 00:06:02;;;;;;;58.70;29.73;;;;;;;4.61;100.00;96627.56;5017461;28;20985;-74
2021/11/16 00:08:28;;;;;;;51.33;29.57;;;;;;;4.56;100.00;96628.84;5028624;28;20033;-74
2021/11/16 00:10:54;;;;;;;54.40;29.87;;;;;;;4.56;100.00;96623.63;5025636;28;20052;-73
2021/11/16 00:13:20;;;;;;;55.67;30.57;;;;;;;4.61;100.00;96622.34;5036478;28;20129;-74
2021/11/16 00:15:46;;;;;;;54.60;29.37;;;;;;;4.59;100.00;96623.41;5034790;28;20036;-74
2021/11/16 00:18:12;;;;;;;53.63;28.00;;;;;;;4.64;100.00;96622.13;5021198;28;20098;-73
2021/11/16 00:20:44;;;;;;;51.07;29.57;;;;;;;4.58;100.00;96616.53;5031454;28;20082;-74
2021/11/16 00:23:17;;;;;;;57.20;30.23;;;;;;;4.58;100.00;96621.75;5011439;28;20033;-74
2021/11/16 00:25:45;;;;;;;54.47;28.83;;;;;;;4.54;100.00;96621.16;5029577;28;20506;-74
2021/11/16 00:28:11;;;;;;;55.17;31.47;;;;;;;4.57;100.00;96622.69;5012159;28;20116;-74
2021/11/16 00:30:38;;;;;;;56.67;32.03;;;;;;;4.61;100.00;96627.56;5031708;28;20040;-74
2021/11/16 00:33:05;;;;;;;59.97;31.67;;;;;;;4.63;100.00;96625.69;5015526;28;20034;-73
2021/11/16 00:35:37;;;;;;;53.60;30.27;;;;;;;4.68;100.00;96628.78;5027987;28;20747;-74
2021/11/16 00:38:03;;;;;;;52.47;29.87;;;;;;;4.65;100.00;96633.38;5037220;28;20031;-74
2021/11/16 00:40:29;;;;;;;50.43;28.73;;;;;;;4.69;100.00;96634.81;4998544;28;20092;-74
2021/11/16 00:42:54;;;;;;;62.50;31.03;;;;;;;4.59;100.00;96637.25;5040743;28;20325;-74
2021/11/16 00:45:20;;;;;;;52.83;30.93;;;;;;;4.61;100.00;96637.97;5035116;28;20029;-73
2021/11/16 00:47:46;;;;;;;56.97;30.67;;;;;;;4.62;100.00;96633.59;5028669;28;20028;-73
2021/11/16 00:50:15;;;;;;;54.77;29.40;;;;;;;4.61;100.00;96632.78;5038935;28;20155;-74
2021/11/16 00:52:42;;;;;;;57.20;29.10;;;;;;;4.68;100.00;96636.59;5025968;28;20033;-74
2021/11/16 00:55:08;;;;;;;56.90;31.27;;;;;;;4.70;100.00;96637.31;5025724;28;20141;-74
2021/11/16 00:57:34;;;;;;;54.10;29.03;;;;;;;4.70;100.00;96632.09;5020927;28;20603;-74
2021/11/16 01:00:00;;;;;;;55.63;31.07;;;;;;;4.72;100.00;96639.78;5040239;28;20028;-74
2021/11/16 01:02:25;;;;;;;55.87;29.93;;;;;;;4.68;100.00;96633.97;5041458;28;20400;-74
2021/11/16 01:04:52;;;;;;;52.60;30.40;;;;;;;4.68;100.00;96644.41;5020847;28;20040;-74
2021/11/16 01:07:19;;;;;;;49.07;28.77;;;;;;;4.70;100.00;96636.50;5022173;28;20025;-74
2021/11/16 01:09:46;;;;;;;49.67;28.57;;;;;;;4.71;100.00;96645.97;5042114;28;20474;-74
2021/11/16 01:12:13;;;;;;;55.03;29.60;;;;;;;4.58;100.00;96653.84;5009616;28;20033;-73
2021/11/16 01:14:40;;;;;;;55.37;29.00;;;;;;;4.62;100.00;96644.03;5019968;28;20410;-74
2021/11/16 01:17:07;;;;;;;47.43;27.67;;;;;;;4.59;100.00;96649.44;5022793;28;20029;-74
2021/11/16 01:19:33;;;;;;;58.80;31.13;;;;;;;4.53;100.00;96649.88;5015725;28;20463;-74
2021/11/16 01:21:59;;;;;;;57.90;29.97;;;;;;;4.58;100.00;96651.22;5020197;28;20037;-74
2021/11/16 01:24:24;;;;;;;56.60;30.17;;;;;;;4.56;100.00;96655.75;5047158;28;20360;-74
2021/11/16 01:26:50;;;;;;;52.47;28.17;;;;;;;4.51;100.00;96649.19;5022323;28;20024;-73
2021/11/16 01:29:19;;;;;;;54.57;28.27;;;;;;;4.49;100.00;96655.34;5022409;28;20558;-74
2021/11/16 01:31:45;;;;;;;55.93;28.17;;;;;;;4.47;100.00;96652.00;5033731;28;20065;-74
2021/11/16 01:34:11;;;;;;;59.40;29.80;;;;;;;4.39;100.00;96658.69;5006668;28;20552;-74
2021/11/16 01:36:38;;;;;;;56.03;29.70;;;;;;;4.44;100.00;96647.03;5017403;28;20056;-74
2021/11/16 01:39:05;;;;;;;52.43;29.60;;;;;;;4.42;100.00;96659.31;5007064;28;20067;-74
2021/11/16 01:41:32;;;;;;;55.37;28.10;;;;;;;4.41;100.00;96649.84;5017622;28;20025;-74
2021/11/16 01:44:00;;;;;;;56.47;27.87;;;;;;;4.42;100.00;96648.06;5023283;28;20056;-74
2021/11/16 01:46:27;;;;;;;55.40;30.77;;;;;;;4.40;100.00;96642.16;5041989;28;20102;-74
2021/11/16 01:48:56;;;;;;;53.63;28.53;;;;;;;4.36;100.00;96653.72;5021473;28;20391;-74
2021/11/16 01:51:27;;;;;;;59.40;28.97;;;;;;;4.37;100.00;96643.22;5031874;28;20059;-74
2021/11/16 01:54:01;;;;;;;58.37;28.53;;;;;;;4.42;100.00;96643.69;4995204;28;20090;-74
2021/11/16 01:56:29;;;;;;;54.67;29.47;;;;;;;4.46;100.00;96645.16;5005008;28;20037;-74
2021/11/16 01:58:58;;;;;;;55.23;28.57;;;;;;;4.44;100.00;96634.00;5010336;28;20029;-73
2021/11/16 02:01:24;;;;;;;53.97;28.93;;;;;;;4.44;100.00;96636.59;5037354;28;20025;-74
2021/11/16 02:03:49;;;;;;;58.70;28.03;;;;;;;4.50;100.00;96640.56;5034863;28;20040;-74
2021/11/16 02:06:25;;;;;;;55.80;29.37;;;;;;;4.54;100.00;96628.13;4999331;28;20475;-73
2021/11/16 02:08:53;;;;;;;51.50;26.80;;;;;;;4.47;100.00;96636.38;5046559;28;20028;-73
2021/11/16 02:11:19;;;;;;;58.17;29.30;;;;;;;4.55;100.00;96641.03;5021739;28;20037;-73
2021/11/16 02:13:45;;;;;;;51.97;26.87;;;;;;;4.58;100.00;96637.38;5020057;28;20132;-73
2021/11/16 02:16:11;;;;;;;52.00;27.80;;;;;;;4.57;100.00;96633.94;5042263;28;20498;-73
2021/11/16 02:18:38;;;;;;;52.90;28.53;;;;;;;4.60;100.00;96620.69;5029922;28;20030;-73
2021/11/16 02:21:05;;;;;;;54.03;28.00;;;;;;;4.64;100.00;96626.50;5012778;28;20107;-74
2021/11/16 02:23:32;;;;;;;60.77;29.40;;;;;;;4.62;100.00;96628.38;5030306;28;20083;-73
2021/11/16 02:25:58;;;;;;;51.40;29.47;;;;;;;4.64;100.00;96626.50;5023815;28;20032;-73
2021/11/16 02:28:24;;;;;;;53.63;29.20;;;;;;;4.55;100.00;96643.63;5033852;28;20045;-73
2021/11/16 02:30:50;;;;;;;52.23;27.70;;;;;;;4.61;100.00;96631.94;5003258;28;20032;-75
2021/11/16 02:33:17;;;;;;;57.17;30.17;;;;;;;4.66;100.00;96635.03;5026902;28;20025;-75
2021/11/16 02:35:43;;;;;;;56.23;28.37;;;;;;;4.68;100.00;96628.78;5016964;28;20108;-75
2021/11/16 02:38:10;;;;;;;51.20;27.20;;;;;;;4.65;100.00;96620.34;5029054;28;20087;-74
2021/11/16 02:40:36;;;;;;;57.27;29.53;;;;;;;4.69;100.00;96624.38;5019586;28;20779;-74
2021/11/16 02:43:03;;;;;;;53.73;30.37;;;;;;;4.72;100.00;96618.94;5036336;28;20036;-74
2021/11/16 02:45:29;;;;;;;53.00;29.93;;;;;;;4.72;100.00;96618.94;4996826;28;20029;-74
2021/11/16 02:47:55;;;;;;;52.63;27.63;;;;;;;4.72;100.00;96598.94;5047820;28;20056;-74
2021/11/16 02:50:22;;;;;;;50.27;28.20;;;;;;;4.68;100.00;96607.94;5041864;28;20035;-74
2021/11/16 02:52:48;;;;;;;57.77;32.57;;;;;;;4.72;100.00;96608.53;5015352;28;20482;-74
2021/11/16 02:55:15;;;;;;;54.97;28.63;;;;;;;4.65;100.00;96609.94;5013461;28;20116;-74
2021/11/16 02:57:42;;;;;;;54.20;29.73;;;;;;;4.59;100.00;96607.78;5037286;28;20022;-74
2021/11/16 03:00:13;;;;;;;56.77;29.73;;;;;;;4.57;100.00;96612.28;5038836;28;20363;-74
2021/11/16 03:02:45;;;;;;;56.77;28.77;;;;;;;4.62;100.00;96607.56;5030228;28;20538;-74
2021/11/16 03:05:11;;;;;;;53.57;26.30;;;;;;;4.64;100.00;96610.88;5036749;28;20030;-74
2021/11/16 03:07:44;;;;;;;57.37;29.57;;;;;;;4.59;100.00;96608.59;5016862;28;20025;-74
2021/11/16 03:10:11;;;;;;;57.10;28.47;;;;;;;4.61;100.00;96608.50;5040958;28;20033;-74
2021/11/16 03:12:37;;;;;;;55.67;30.00;;;;;;;4.56;100.00;96602.78;4999596;28;20429;-74
2021/11/16 03:15:04;;;;;;;53.37;29.23;;;;;;;4.54;100.00;96610.72;5034801;28;20036;-74
2021/11/16 03:17:30;;;;;;;56.37;28.33;;;;;;;4.49;100.00;96603.25;5008387;28;20494;-74
2021/11/16 03:19:56;;;;;;;54.53;31.43;;;;;;;4.47;100.00;96601.72;5038755;28;20223;-74
2021/11/16 03:22:27;;;;;;;57.20;30.50;;;;;;;4.48;100.00;96591.16;5018151;28;20041;-73
2021/11/16 03:24:58;;;;;;;53.30;28.50;;;;;;;4.56;100.00;96582.81;5021846;28;20029;-73
2021/11/16 03:27:33;;;;;;;54.37;28.43;;;;;;;4.59;100.00;96589.53;5023828;28;20036;-72
2021/11/16 03:30:00;;;;;;;62.00;29.20;;;;;;;4.51;100.00;96591.91;5035207;28;20029;-73
2021/11/16 03:32:34;;;;;;;55.73;29.37;;;;;;;4.41;100.00;96589.13;5013675;28;20387;-72
2021/11/16 03:35:01;;;;;;;60.13;28.43;;;;;;;4.45;100.00;96585.34;5040892;28;20573;-73
2021/11/16 03:37:36;;;;;;;58.97;31.40;;;;;;;4.43;100.00;96588.09;5017527;28;20025;-72
2021/11/16 03:40:03;;;;;;;56.57;28.50;;;;;;;4.46;100.00;96590.47;5048628;28;20176;-73
2021/11/16 03:42:28;;;;;;;56.57;28.47;;;;;;;4.43;100.00;96601.09;5016390;28;20021;-73
2021/11/16 03:44:55;;;;;;;58.00;31.67;;;;;;;4.41;100.00;96597.78;5037573;28;20029;-72
2021/11/16 03:47:21;;;;;;;55.40;28.93;;;;;;;4.44;100.00;96599.31;5041930;28;20025;-73
2021/11/16 03:49:47;;;;;;;55.33;29.37;;;;;;;4.36;100.00;96602.50;5036372;28;20029;-73
2021/11/16 03:52:13;;;;;;;55.90;28.97;;;;;;;4.44;100.00;96607.97;5038926;28;20057;-74
2021/11/16 03:54:39;;;;;;;55.07;28.43;;;;;;;4.43;100.00;96606.31;5017399;28;20088;-74
2021/11/16 03:57:05;;;;;;;61.13;30.67;;;;;;;4.40;100.00;96608.31;5014881;28;20029;-74
2021/11/16 03:59:31;;;;;;;53.87;29.87;;;;;;;4.40;100.00;96618.72;5028481;28;20022;-74
2021/11/16 04:01:58;;;;;;;60.33;29.67;;;;;;;4.43;100.00;96614.13;5011593;28;20056;-74
2021/11/16 04:04:25;;;;;;;60.17;29.77;;;;;;;4.50;100.00;96614.50;5036790;28;20029;-74
2021/11/16 04:06:51;;;;;;;53.23;28.37;;;;;;;4.44;100.00;96604.53;4998169;28;20108;-74
2021/11/16 04:09:19;;;;;;;55.97;28.27;;;;;;;4.42;100.00;96607.22;5005678;28;20040;-74
2021/11/16 04:11:45;;;;;;;58.93;29.23;;;;;;;4.41;100.00;96600.38;5042216;28;20029;-74
2021/11/16 04:14:11;;;;;;;58.93;31.60;;;;;;;4.42;100.00;96601.19;5025627;28;20072;-74
2021/11/16 04:16:36;;;;;;;59.87;29.60;;;;;;;4.32;100.00;96595.81;5025898;28;20025;-74
2021/11/16 04:19:03;;;;;;;62.60;29.50;;;;;;;4.40;100.00;96603.09;5017866;28;20109;-74
2021/11/16 04:21:29;;;;;;;58.97;29.07;;;;;;;4.35;100.00;96611.22;5043957;28;20033;-74
2021/11/16 04:23:55;;;;;;;62.67;29.17;;;;;;;4.32;100.00;96606.25;5015085;28;20029;-74
2021/11/16 04:26:22;;;;;;;55.57;26.53;;;;;;;4.32;100.00;96605.41;5040032;28;20082;-73
2021/11/16 04:28:47;;;;;;;57.03;30.67;;;;;;;4.23;100.00;96604.31;5031665;28;20118;-74
2021/11/16 04:31:13;;;;;;;55.73;28.40;;;;;;;4.30;100.00;96596.91;4999434;28;20116;-74
2021/11/16 04:33:40;;;;;;;57.37;30.80;;;;;;;4.27;100.00;96599.72;5006157;28;20034;-74
2021/11/16 04:36:05;;;;;;;57.30;29.30;;;;;;;4.23;100.00;96612.97;5012505;28;20083;-74
2021/11/16 04:38:31;;;;;;;57.90;29.33;;;;;;;4.15;100.00;96611.84;5021943;28;20673;-74
2021/11/16 04:41:00;;;;;;;56.70;28.33;;;;;;;4.22;100.00;96605.25;5021266;28;20022;-74
2021/11/16 04:43:27;;;;;;;59.90;28.60;;;;;;;4.23;100.00;96601.72;5012035;28;20105;-73
2021/11/16 04:45:57;;;;;;;62.37;29.80;;;;;;;4.26;100.00;96606.72;5019588;28;20025;-73
2021/11/16 05:04:18;;;;;;;58.90;28.93;;;;;;;3.97;100.00;96607.03;5022353;28;20037;-74
2021/11/16 05:06:44;;;;;;;60.17;29.50;;;;;;;3.94;100.00;96609.84;5039613;28;20021;-74
2021/11/16 05:09:13;;;;;;;58.70;29.60;;;;;;;4.03;100.00;96604.94;5044606;28;20482;-74
2021/11/16 05:11:39;;;;;;;57.27;29.87;;;;;;;4.07;100.00;96594.19;5018231;28;20030;-73
2021/11/16 05:14:05;;;;;;;60.37;29.93;;;;;;;4.10;100.00;96591.38;5038123;28;20028;-73
2021/11/16 05:16:31;;;;;;;53.10;27.00;;;;;;;4.13;100.00;96583.34;5013351;28;20480;-74
2021/11/16 05:18:57;;;;;;;56.10;28.03;;;;;;;4.13;100.00;96585.94;5029160;28;20028;-74
2021/11/16 05:21:23;;;;;;;57.73;29.03;;;;;;;4.10;100.00;96580.13;5015897;28;20033;-74
2021/11/16 05:23:52;;;;;;;59.23;29.00;;;;;;;4.07;100.00;96575.97;5027193;28;20490;-74
2021/11/16 05:26:19;;;;;;;54.03;27.20;;;;;;;4.06;100.00;96578.66;5038583;28;20116;-73
2021/11/16 05:28:45;;;;;;;59.40;28.30;;;;;;;3.99;100.00;96579.13;5031038;28;20079;-74
2021/11/16 05:31:11;;;;;;;62.53;29.50;;;;;;;3.96;100.00;96584.56;5016464;28;20491;-75
2021/11/16 05:33:37;;;;;;;66.90;30.47;;;;;;;3.94;100.00;96583.81;5017098;28;20090;-74
2021/11/16 05:36:03;;;;;;;60.53;29.17;;;;;;;3.95;100.00;96589.84;5038716;28;20095;-73
2021/11/16 05:38:34;;;;;;;63.70;30.03;;;;;;;3.97;100.00;96583.59;4995743;28;20029;-74
2021/11/16 05:41:01;;;;;;;59.90;28.47;;;;;;;4.01;100.00;96592.84;5036508;28;20036;-74
2021/11/16 05:43:28;;;;;;;57.47;29.10;;;;;;;4.04;100.00;96597.00;5010522;28;20025;-74
2021/11/16 05:45:55;;;;;;;54.73;27.60;;;;;;;4.05;100.00;96579.63;5019473;28;20056;-74
2021/11/16 05:48:23;;;;;;;59.83;28.90;;;;;;;4.02;100.00;96593.66;5010750;28;20026;-74
2021/11/16 05:50:51;;;;;;;53.03;26.47;;;;;;;4.07;100.00;96583.78;5029604;28;20410;-75
2021/11/16 05:53:17;;;;;;;55.37;27.67;;;;;;;4.11;100.00;96581.78;5010570;28;20036;-74
2021/11/16 05:55:45;;;;;;;60.87;29.87;;;;;;;4.12;100.00;96583.44;5018631;28;20026;-74
2021/11/16 05:58:18;;;;;;;64.77;31.00;;;;;;;4.03;100.00;96592.75;5016074;28;20020;-74
2021/11/16 06:00:45;;;;;;;65.60;31.37;;;;;;;4.01;100.00;96586.81;4997763;28;20380;-74
2021/11/16 06:03:10;;;;;;;60.97;30.33;;;;;;;4.03;100.00;96576.31;5027571;28;20025;-74
2021/11/16 06:05:37;;;;;;;67.30;30.37;;;;;;;3.99;100.00;96596.50;5033061;28;20029;-74
2021/11/16 06:08:03;;;;;;;61.97;29.03;;;;;;;3.97;100.00;96596.63;5007340;28;20080;-74
2021/11/16 06:10:29;;;;;;;58.93;28.87;;;;;;;3.99;100.00;96601.69;5021457;28;20033;-74
2021/11/16 06:12:55;;;;;;;58.97;27.83;;;;;;;3.96;100.00;96602.75;5031418;28;20506;-74
2021/11/16 06:15:21;;;;;;;60.70;28.40;;;;;;;3.96;100.00;96602.75;5038529;28;20032;-74
2021/11/16 06:17:47;;;;;;;54.13;27.13;;;;;;;3.95;100.00;96608.88;5015344;28;20108;-73
2021/11/16 06:20:17;;;;;;;55.73;26.93;;;;;;;3.97;100.00;96603.59;5039760;28;20029;-74
2021/11/16 06:22:43;;;;;;;51.63;25.57;;;;;;;3.97;100.00;96603.59;4997632;28;20116;-74
2021/11/16 06:25:09;;;;;;;50.67;24.43;;;;;;;4.04;100.00;96606.59;5015544;28;20090;-74
2021/11/16 06:27:34;;;;;;;45.83;24.17;;;;;;;4.06;100.00;96605.53;5015398;28;20033;-74
2021/11/16 06:30:00;;;;;;;51.73;25.83;;;;;;;4.07;100.00;96593.34;5009258;28;20033;-74
2021/11/16 06:32:26;;;;;;;47.17;23.50;;;;;;;4.08;100.00;96601.03;5030705;28;20025;-73
2021/11/16 06:34:52;;;;;;;49.00;22.97;;;;;;;4.12;100.00;96601.66;5015953;28;20060;-74
2021/11/16 06:37:18;;;;;;;45.27;22.30;;;;;;;4.16;100.00;96616.13;5033462;28;20021;-74
2021/11/16 06:39:44;;;;;;;47.73;21.53;;;;;;;4.21;100.00;96609.63;5029061;28;20037;-74
2021/11/16 06:42:13;;;;;;;51.97;23.90;;;;;;;4.20;100.00;96607.16;5013616;28;20112;-74
2021/11/16 06:44:39;;;;;;;49.00;24.43;;;;;;;4.14;100.00;96615.41;5019782;28;20060;-74
2021/11/16 06:47:05;;;;;;;48.40;24.67;;;;;;;4.19;100.00;96611.53;5035056;28;20107;-74
2021/11/16 06:49:32;;;;;;;46.93;22.37;;;;;;;4.14;100.00;96623.22;5028130;28;20068;-74
2021/11/16 06:51:59;;;;;;;48.23;23.03;;;;;;;4.14;100.00;96625.81;5022066;28;20044;-74
2021/11/16 06:54:26;;;;;;;51.57;24.00;;;;;;;4.18;100.00;96630.66;5032632;28;20037;-74
2021/11/16 06:56:54;;;;;;;51.57;24.67;;;;;;;4.27;100.00;96629.19;5024616;28;20041;-74
2021/11/16 06:59:24;;;;;;;53.30;25.37;;;;;;;4.30;100.00;96631.56;5026405;28;20403;-73
2021/11/16 07:01:51;;;;;;;47.70;23.83;;;;;;;4.31;100.00;96635.84;5031665;28;20696;-74
2021/11/16 07:04:16;;;;;;;51.30;24.63;;;;;;;4.35;100.00;96636.44;5039213;28;20064;-74
2021/11/16 07:06:45;;;;;;;52.43;24.53;;;;;;;4.38;100.00;96631.00;5001531;28;20494;-74
2021/11/16 07:09:13;;;;;;;47.23;26.50;;;;;;;4.41;100.00;96638.59;5031488;28;20530;-74
2021/11/16 07:11:48;;;;;;;49.77;24.37;;;;;;;4.41;100.00;96621.22;5026478;28;20033;-74
2021/11/16 07:14:17;;;;;;;54.00;25.67;;;;;;;4.43;100.00;96624.53;5029555;28;20033;-74
2021/11/16 07:16:58;;;;;;;44.40;23.30;;;;;;;4.43;100.00;96627.16;5033653;28;20041;-74
2021/11/16 07:19:35;;;;;;;45.40;22.77;;;;;;;4.41;100.00;96629.00;5008078;28;20490;-73
2021/11/16 07:22:05;;;;;;;45.90;24.63;;;;;;;4.42;100.00;96640.25;5005011;28;20136;-73
2021/11/16 07:24:31;;;;;;;48.43;23.57;;;;;;;4.40;100.00;96637.78;5039329;28;20491;-73
2021/11/16 07:26:58;;;;;;;50.10;24.57;;;;;;;4.46;100.00;96631.28;5029949;28;20029;-74
2021/11/16 07:29:47;;;;;;;45.57;24.40;;;;;;;4.45;100.00;96633.06;5030462;28;20037;-74
2021/11/16 07:32:22;;;;;;;49.43;25.87;;;;;;;4.47;100.00;96636.38;5016076;28;20033;-73
2021/11/16 07:34:50;;;;;;;52.17;24.90;;;;;;;4.44;100.00;96633.19;5035198;28;20040;-73
2021/11/16 07:37:28;;;;;;;50.70;26.33;;;;;;;4.53;100.00;96629.06;5016873;28;20035;-73
2021/11/16 07:39:56;;;;;;;51.90;25.10;;;;;;;4.46;100.00;96629.53;5034207;28;20059;-73
2021/11/16 07:42:26;;;;;;;52.30;27.20;;;;;;;4.47;100.00;96640.78;5013644;28;20030;-73
2021/11/16 07:45:13;;;;;;;54.53;26.63;;;;;;;4.49;100.00;96644.06;5011869;28;20030;-73
2021/11/16 07:47:46;;;;;;;48.47;24.83;;;;;;;4.41;100.00;96644.63;5039538;28;20043;-73
2021/11/16 07:50:17;;;;;;;51.97;26.93;;;;;;;4.54;100.00;96648.97;5021281;28;20036;-73
2021/11/16 07:52:45;;;;;;;51.53;27.03;;;;;;;4.51;100.00;96646.59;5013933;28;20460;-72
2021/11/16 07:55:26;;;;;;;51.23;27.33;;;;;;;4.56;100.00;96647.94;5032110;28;20021;-72
2021/11/16 07:57:54;;;;;;;58.87;31.33;;;;;;;4.48;100.00;96648.47;5014698;28;20033;-73
2021/11/16 08:00:26;;;;;;;60.90;31.20;;;;;;;4.44;100.00;96652.22;5001208;28;20053;-73
2021/11/16 08:03:04;;;;;;;55.30;29.20;;;;;;;4.43;100.00;96650.59;5020424;28;20037;-73
2021/11/16 08:08:23;;;;;;;49.37;26.33;;;;;;;4.39;100.00;96651.75;5019000;28;20546;-74
2021/11/16 08:11:00;;;;;;;49.63;25.60;;;;;;;4.41;100.00;96660.25;5011585;28;20535;-74
2021/11/16 08:13:29;;;;;;;50.90;24.07;;;;;;;4.26;100.00;96656.19;5024526;28;20029;-74
2021/11/16 08:16:06;;;;;;;47.37;23.73;;;;;;;4.27;100.00;96655.22;5026620;28;20053;-73
2021/11/16 08:18:42;;;;;;;43.90;22.17;;;;;;;4.32;100.00;96660.91;5031681;28;20115;-74
2021/11/16 08:21:07;;;;;;;40.47;20.93;;;;;;;4.44;100.00;96651.41;5018486;28;20175;-74
2021/11/16 08:23:33;;;;;;;45.73;22.23;;;;;;;4.49;100.00;96659.69;5018129;28;20033;-73
2021/11/16 08:25:59;;;;;;;45.87;22.37;;;;;;;4.47;100.00;96662.44;5008997;28;20068;-73
2021/11/16 08:28:26;;;;;;;44.73;22.47;;;;;;;4.46;100.00;96673.81;5030884;28;20045;-73
2021/11/16 08:30:53;;;;;;;43.00;22.93;;;;;;;4.54;100.00;96675.84;5013338;28;20398;-74
2021/11/16 08:33:19;;;;;;;43.93;23.30;;;;;;;4.52;100.00;96674.28;5017610;28;20137;-74
2021/11/16 08:35:48;;;;;;;42.63;21.80;;;;;;;4.39;100.00;96674.31;5031181;28;20030;-74
2021/11/16 08:38:14;;;;;;;43.70;23.70;;;;;;;4.49;100.00;96670.97;5042605;28;20044;-74
2021/11/16 08:40:45;;;;;;;44.53;23.23;;;;;;;4.45;100.00;96663.47;5000501;28;20064;-74
2021/11/16 08:43:15;;;;;;;45.77;23.43;;;;;;;4.52;100.00;96661.25;5034772;28;20575;-73
2021/11/16 08:45:49;;;;;;;38.57;20.27;;;;;;;4.51;100.00;96657.00;5032771;28;20029;-74
2021/11/16 08:48:22;;;;;;;;;;;;;;;4.49;100.00;96660.56;5026746;28;20815;-74
2021/11/16 08:51:02;;;;;;;33.73;17.63;;;;;;;4.61;100.00;96658.00;5024123;28;19924;-74
2021/11/16 08:53:31;;;;;;;43.27;18.10;;;;;;;4.62;100.00;96663.06;5004544;28;20424;-73
2021/11/16 08:55:58;;;;;;;34.90;16.67;;;;;;;4.60;100.00;96658.94;5023455;28;20029;-74
2021/11/16 08:58:29;;;;;;;40.37;18.37;;;;;;;4.65;100.00;96664.63;4997343;28;21003;-73
2021/11/16 09:00:59;;;;;;;37.40;19.17;;;;;;;4.57;100.00;96661.78;5017566;28;20035;-73
2021/11/16 09:03:29;;;;;;;35.30;19.03;;;;;;;4.68;100.00;96659.19;5022485;28;20496;-73
2021/11/16 09:06:00;;;;;;;38.60;20.87;;;;;;;4.62;100.00;96664.84;5040435;28;20064;-74
2021/11/16 09:08:29;;;;;;;46.03;21.87;;;;;;;4.64;100.00;96662.97;5033256;28;20069;-73
2021/11/16 09:11:10;;;;;;;46.13;22.90;;;;;;;4.61;100.00;96668.41;5015160;28;20021;-73
2021/11/16 09:13:36;;;;;;;42.23;20.63;;;;;;;4.70;100.00;96660.75;5025350;28;20044;-73
2021/11/16 09:16:13;;;;;;;45.70;23.23;;;;;;;4.67;100.00;96668.81;5025953;28;20030;-73
2021/11/16 09:18:45;;;;;;;39.30;21.67;;;;;;;4.65;100.00;96669.84;5032903;28;20109;-74
2021/11/16 09:21:18;;;;;;;39.70;21.37;;;;;;;4.79;100.00;96663.63;5016445;28;20121;-73
2021/11/16 09:23:49;;;;;;;40.33;19.95;;;;;;;4.88;100.00;96661.16;5031280;28;20103;-75
2021/11/16 09:26:18;;;;;;;41.93;21.67;;;;;;;4.83;100.00;96660.69;5027157;28;20521;-74
2021/11/16 09:28:56;;;;;;;43.20;22.03;;;;;;;4.95;100.00;96664.16;5028808;28;20060;-73
2021/11/16 09:31:40;;;;;;;37.83;19.17;;;;;;;4.78;100.00;96656.75;5036071;28;20083;-74
2021/11/16 09:34:23;;;;;;;40.55;18.58;;;;;;;4.91;100.00;96649.69;5025695;28;20730;-74
2021/11/16 09:37:02;;;;;;;36.10;19.67;;;;;;;4.85;100.00;96652.75;5031067;28;20041;-74
2021/11/16 09:39:40;;;;;;;39.30;18.70;;;;;;;4.80;100.00;96652.28;5042216;28;20017;-73
2021/11/16 09:42:09;;;;;;;41.13;20.90;;;;;;;4.82;100.00;96659.00;5000241;28;20075;-73
2021/11/16 09:44:44;;;;;;;39.83;19.13;;;;;;;4.69;100.00;96658.25;5031773;28;20762;-74
2021/11/16 09:47:17;;;;;;;43.67;20.87;;;;;;;4.74;100.00;96653.53;5009826;28;20029;-74
2021/11/16 09:50:04;;;;;;;36.05;18.67;;;;;;;4.77;100.00;96650.72;5009742;28;20029;-73
2021/11/16 09:52:42;;;;;;;40.97;19.17;;;;;;;4.65;100.00;96643.78;5010614;28;20513;-72
2021/11/16 09:55:14;;;;;;;38.63;20.37;;;;;;;4.69;100.00;96653.03;5031449;28;20040;-74
2021/11/16 09:57:46;;;;;;;38.57;18.73;;;;;;;4.69;100.00;96645.22;4991653;28;20048;-73
2021/11/16 10:00:23;;;;;;;40.83;19.87;;;;;;;4.63;100.00;96635.28;5021500;28;20100;-73
2021/11/16 10:03:03;;;;;;;40.57;21.17;;;;;;;4.75;100.00;96636.97;5021903;28;20116;-73
2021/11/16 10:05:32;;;;;;;45.80;21.57;;;;;;;4.80;100.00;96637.47;5017835;28;20045;-73
2021/11/16 10:08:04;;;;;;;39.87;21.63;;;;;;;4.82;100.00;96648.59;5029709;28;20343;-73
2021/11/16 10:10:33;;;;;;;39.10;19.67;;;;;;;4.83;100.00;96646.81;4999017;28;20059;-73
2021/11/16 10:13:01;;;;;;;44.20;20.80;;;;;;;4.85;100.00;96647.53;5016890;28;20111;-72
2021/11/16 10:15:30;;;;;;;36.57;18.97;;;;;;;4.86;100.00;96652.66;5009309;28;20025;-73
2021/11/16 10:17:56;;;;;;;40.30;19.97;;;;;;;4.90;100.00;96656.69;5033973;28;20766;-73
2021/11/16 10:20:27;;;;;;;34.77;17.83;;;;;;;4.99;100.00;96651.72;5028244;28;20528;-72
2021/11/16 10:22:57;;;;;;;36.27;17.67;;;;;;;4.84;100.00;96638.91;4992893;28;20033;-73
2021/11/16 10:25:26;;;;;;;37.47;19.13;;;;;;;4.93;100.00;96650.44;5007790;28;20438;-73
2021/11/16 10:27:54;;;;;;;36.40;18.33;;;;;;;4.90;100.00;96648.03;5014276;28;20034;-73
2021/11/16 10:30:27;;;;;;;31.60;16.83;;;;;;;4.92;100.00;96652.16;5017841;28;20045;-73
2021/11/16 10:33:14;;;;;;;32.47;17.40;;;;;;;4.82;100.00;96660.78;5027723;28;20144;-73
2021/11/16 10:36:02;;;;;;;38.13;17.97;;;;;;;4.89;100.00;96654.19;4990546;28;20078;-73
2021/11/16 10:38:31;;;;;;;35.93;18.17;;;;;;;4.94;100.00;96639.88;4994013;28;20060;-73
2021/11/16 10:41:00;;;;;;;33.47;16.00;;;;;;;4.95;100.00;96645.91;4997711;28;20027;-73
2021/11/16 10:43:41;;;;;;;37.40;18.10;;;;;;;4.99;100.00;96639.50;5018846;28;20036;-73
2021/11/16 10:46:08;;;;;;;34.73;18.43;;;;;;;5.05;100.00;96638.22;5008264;28;20045;-73
2021/11/16 10:48:35;;;;;;;34.33;17.37;;;;;;;5.10;100.00;96636.13;5015940;28;20120;-73
2021/11/16 10:51:08;;;;;;;35.37;16.60;;;;;;;4.89;100.00;96647.19;5016884;28;20116;-73
2021/11/16 10:53:35;;;;;;;34.33;17.73;;;;;;;4.91;100.00;96642.69;4996636;28;20034;-73
2021/11/16 10:56:04;;;;;;;34.90;16.20;;;;;;;4.83;100.00;96641.59;5025290;28;20034;-73
2021/11/16 10:58:34;;;;;;;35.43;16.40;;;;;;;4.81;100.00;96633.91;5027393;28;20076;-73
2021/11/16 11:01:05;;;;;;;36.00;16.77;;;;;;;4.83;100.00;96624.22;5024389;28;20079;-73
2021/11/16 11:03:42;;;;;;;34.27;16.87;;;;;;;4.87;100.00;96630.03;5020533;28;20037;-73
2021/11/16 11:06:25;;;;;;;31.40;16.53;;;;;;;4.94;100.00;96624.22;5030441;28;20029;-73
2021/11/16 11:08:57;;;;;;;39.73;17.17;;;;;;;4.84;100.00;96614.63;5010914;28;20031;-73
2021/11/16 11:11:29;;;;;;;33.70;16.17;;;;;;;4.78;100.00;96620.28;5021190;28;20120;-73
2021/11/16 11:14:03;;;;;;;34.47;16.43;;;;;;;4.65;100.00;96623.78;5030311;28;20144;-74
2021/11/16 11:16:31;;;;;;;33.83;18.27;;;;;;;4.63;100.00;96623.09;5008350;28;20037;-74
2021/11/16 11:18:57;;;;;;;37.23;17.23;;;;;;;4.73;100.00;96621.47;5024092;28;20013;-73
2021/11/16 11:21:34;;;;;;;32.03;14.67;;;;;;;4.83;100.00;96608.56;5033894;28;20088;-73
2021/11/16 11:24:12;;;;;;;32.93;15.57;;;;;;;4.90;100.00;96609.78;5021411;28;20754;-74
2021/11/16 11:26:48;;;;;;;31.87;16.67;;;;;;;4.97;100.00;96600.53;5034293;28;20065;-73
2021/11/16 11:29:39;;;;;;;33.37;16.50;;;;;;;4.92;100.00;96610.47;5039177;28;20112;-73
2021/11/16 11:32:05;;;;;;;35.90;16.13;;;;;;;4.94;100.00;96599.94;5014219;28;20055;-72
2021/11/16 11:34:36;;;;;;;32.40;16.13;;;;;;;5.00;100.00;96611.66;5030090;28;20490;-72
2021/11/16 11:37:06;;;;;;;34.07;16.43;;;;;;;5.00;100.00;96601.25;5037019;28;20031;-72
2021/11/16 11:39:32;;;;;;;46.50;25.93;;;;;;;4.88;100.00;96608.22;5016896;28;20113;-72
2021/11/16 11:41:59;;;;;;;73.43;55.33;;;;;;;4.71;100.00;96596.47;5019885;28;20034;-73
2021/11/16 11:44:26;;;;;;;32.47;23.07;;;;;;;4.67;100.00;96613.25;5031505;28;20099;-73